Time;durP1;ratioP1;P1;durP2;ratioP2;P2;SDS_P1;SDS_P2;PMS_P1;PMS_P2;Temp;Humidity;BMP_temperature;BMP_pressure;BME280_temperature;BME280_humidity;BME280_pressure;Samples;Min_cycle;Max_cycle;Signal;HPM_P1;HPM_P2
2023/11/22 00:02:11;;;;;;;4.33;3.10;;;;;;;-141.23;100.00;62281.09;5079559;28;20055;-69
2023/11/22 00:04:38;;;;;;;8.00;3.10;;;;;;;-141.23;100.00;62281.09;5085197;27;20051;-69
2023/11/22 00:07:04;;;;;;;5.43;3.00;;;;;;;-141.23;100.00;62281.09;5100288;27;20138;-68
2023/11/22 00:09:31;;;;;;;3.87;2.87;;;;;;;-141.23;100.00;62281.09;5078914;28;20136;-68
2023/11/22 00:11:56;;;;;;;6.33;3.20;;;;;;;-141.23;100.00;62281.09;5096292;28;20055;-69
2023/11/22 00:14:22;;;;;;;3.90;2.90;;;;;;;-141.23;100.00;62281.09;5078969;28;20147;-69
2023/11/22 00:16:48;;;;;;;4.00;2.70;;;;;;;-141.23;100.00;62281.09;5062181;28;20046;-69
2023/11/22 00:19:17;;;;;;;3.33;2.90;;;;;;;-141.23;100.00;62281.09;5062485;28;20425;-69
2023/11/22 00:21:45;;;;;;;5.63;3.17;;;;;;;-141.23;100.00;62281.09;5062897;28;20087;-70
2023/11/22 00:24:11;;;;;;;3.83;2.50;;;;;;;-141.23;100.00;62281.09;5062334;28;20067;-70
2023/11/22 00:26:38;;;;;;;2.57;2.30;;;;;;;-141.23;100.00;62281.09;5061829;28;20055;-70
2023/11/22 00:29:05;;;;;;;4.90;3.43;;;;;;;-141.23;100.00;62281.09;5071823;28;20060;-69
2023/11/22 00:31:31;;;;;;;4.60;3.10;;;;;;;-141.23;100.00;62281.09;5055588;28;20464;-69
2023/11/22 00:33:57;;;;;;;4.03;3.00;;;;;;;-141.23;100.00;62281.09;5072490;28;20138;-69
2023/11/22 00:36:24;;;;;;;3.80;2.93;;;;;;;-141.23;100.00;62281.09;5006168;28;20391;-69
2023/11/22 00:38:51;;;;;;;4.03;3.30;;;;;;;-141.23;100.00;62281.09;5005923;28;20062;-69
2023/11/22 00:41:17;;;;;;;5.10;4.00;;;;;;;-141.23;100.00;62281.09;5089460;28;20074;-70
2023/11/22 00:43:43;;;;;;;3.60;2.47;;;;;;;-141.23;100.00;62281.09;5078901;28;20493;-69
2023/11/22 00:46:10;;;;;;;5.43;2.93;;;;;;;-141.23;100.00;62281.09;5078466;28;20040;-69
2023/11/22 00:48:36;;;;;;;3.57;3.00;;;;;;;-141.23;100.00;62281.09;5061548;28;20413;-69
2023/11/22 00:51:08;;;;;;;4.57;3.07;;;;;;;-141.23;100.00;62281.09;5061697;28;20054;-69
2023/11/22 00:53:36;;;;;;;3.53;2.30;;;;;;;-141.23;100.00;62281.09;5079277;28;20097;-69
2023/11/22 00:56:06;;;;;;;5.30;3.00;;;;;;;-141.23;100.00;62281.09;5079273;28;20395;-69
2023/11/22 00:58:34;;;;;;;4.97;3.00;;;;;;;-141.23;100.00;62281.09;5061940;28;20394;-70
2023/11/22 01:01:01;;;;;;;4.53;2.80;;;;;;;-141.23;100.00;62281.09;5061616;28;20047;-69
2023/11/22 01:03:27;;;;;;;6.07;2.90;;;;;;;-141.23;100.00;62281.09;5061336;28;20036;-69
2023/11/22 01:05:53;;;;;;;4.13;2.47;;;;;;;-141.23;100.00;62281.09;5069346;27;20047;-69
2023/11/22 01:08:20;;;;;;;4.73;2.83;;;;;;;-141.23;100.00;62281.09;5099421;27;20502;-71
2023/11/22 01:10:45;;;;;;;5.47;2.77;;;;;;;-141.23;100.00;62281.09;5099028;27;20051;-69
2023/11/22 01:13:15;;;;;;;3.57;2.70;;;;;;;-141.23;100.00;62281.09;5099110;27;20494;-69
2023/11/22 01:15:41;;;;;;;4.53;2.60;;;;;;;-141.23;100.00;62281.09;5116468;27;20043;-69
2023/11/22 01:18:08;;;;;;;3.67;2.83;;;;;;;-141.23;100.00;62281.09;5116174;27;20043;-69
2023/11/22 01:20:34;;;;;;;7.67;2.73;;;;;;;-141.23;100.00;62281.09;5082409;27;20042;-69
2023/11/22 01:23:02;;;;;;;4.03;2.80;;;;;;;-141.23;100.00;62281.09;5116204;27;20100;-69
2023/11/22 01:25:28;;;;;;;4.13;2.97;;;;;;;-141.23;100.00;62281.09;5082249;27;20039;-70
2023/11/22 01:27:54;;;;;;;8.93;3.07;;;;;;;-141.23;100.00;62281.09;5082005;27;20390;-70
2023/11/22 01:30:20;;;;;;;4.40;2.60;;;;;;;-141.23;100.00;62281.09;5110880;27;20134;-70
2023/11/22 01:32:46;;;;;;;4.97;2.83;;;;;;;-141.23;100.00;62281.09;5115947;27;20439;-70
2023/11/22 01:35:12;;;;;;;4.27;2.77;;;;;;;-141.23;100.00;62281.09;5081910;27;20043;-70
2023/11/22 01:37:38;;;;;;;3.70;2.50;;;;;;;-141.23;100.00;62281.09;5081932;27;20081;-69
2023/11/22 01:40:05;;;;;;;4.83;2.83;;;;;;;-141.23;100.00;62281.09;5081817;27;20075;-69
2023/11/22 01:42:31;;;;;;;4.50;3.00;;;;;;;-141.23;100.00;62281.09;5081848;27;20126;-70
2023/11/22 01:44:57;;;;;;;4.13;2.77;;;;;;;-141.23;100.00;62281.09;5132429;27;20187;-69
2023/11/22 01:47:23;;;;;;;4.97;2.67;;;;;;;-141.23;100.00;62281.09;5040545;28;20055;-69
2023/11/22 01:49:49;;;;;;;4.67;3.23;;;;;;;-141.23;100.00;62281.09;5024279;28;20112;-69
2023/11/22 01:52:15;;;;;;;4.63;3.00;;;;;;;-141.23;100.00;62281.09;5024123;28;20044;-68
2023/11/22 01:54:42;;;;;;;3.63;2.77;;;;;;;-141.23;100.00;62281.09;4994043;28;20276;-69
2023/11/22 01:57:08;;;;;;;4.20;2.93;;;;;;;-141.23;100.00;62281.09;4994343;28;20144;-69
2023/11/22 01:59:35;;;;;;;9.50;3.17;;;;;;;-141.23;100.00;62281.09;4994508;28;20065;-68
2023/11/22 02:02:01;;;;;;;5.17;3.30;;;;;;;-141.23;100.00;62281.09;4961851;28;20159;-70
2023/11/22 02:04:27;;;;;;;4.53;3.10;;;;;;;-141.23;100.00;62281.09;4977995;28;20148;-70
2023/11/22 02:06:53;;;;;;;5.03;3.63;;;;;;;-141.23;100.00;62281.09;4977905;28;20153;-70
2023/11/22 02:09:19;;;;;;;5.80;3.67;;;;;;;-141.23;100.00;62281.09;4978061;28;20060;-70
2023/11/22 02:11:47;;;;;;;5.23;3.30;;;;;;;-141.23;100.00;62281.09;4977903;28;20044;-70
2023/11/22 02:14:13;;;;;;;6.43;3.33;;;;;;;-141.23;100.00;62281.09;4994122;28;20057;-70
2023/11/22 02:16:40;;;;;;;6.30;3.13;;;;;;;-141.23;100.00;62281.09;4977842;28;20058;-70
2023/11/22 02:19:14;;;;;;;5.80;3.83;;;;;;;-141.23;100.00;62281.09;5009501;28;20079;-70
2023/11/22 02:22:00;;;;;;;5.93;4.13;;;;;;;-141.23;100.00;62281.09;5028135;28;20522;-69
2023/11/22 02:24:26;;;;;;;5.70;3.77;;;;;;;-141.23;100.00;62281.09;5035875;28;20447;-70
2023/11/22 02:26:53;;;;;;;6.17;3.80;;;;;;;-141.23;100.00;62281.09;5093828;28;20055;-70
2023/11/22 02:29:19;;;;;;;6.10;3.60;;;;;;;-141.23;100.00;62281.09;5093666;28;20040;-70
2023/11/22 02:31:45;;;;;;;7.33;3.50;;;;;;;-141.23;100.00;62281.09;5075473;28;20146;-70
2023/11/22 02:34:12;;;;;;;3.83;3.40;;;;;;;-141.23;100.00;62281.09;5042619;28;20446;-70
2023/11/22 02:36:43;;;;;;;5.83;3.70;;;;;;;-141.23;100.00;62281.09;5059729;28;20048;-70
2023/11/22 02:39:10;;;;;;;7.18;3.90;;;;;;;-141.23;100.00;62281.09;5060624;28;20087;-70
2023/11/22 02:41:37;;;;;;;8.00;3.73;;;;;;;-141.23;100.00;62281.09;5042980;28;20096;-70
2023/11/22 02:44:03;;;;;;;7.33;3.83;;;;;;;-141.23;100.00;62281.09;5059657;28;20039;-69
2023/11/22 02:46:30;;;;;;;12.73;4.10;;;;;;;-141.23;100.00;62281.09;5059642;28;20524;-69
2023/11/22 02:48:56;;;;;;;5.57;3.37;;;;;;;-141.23;100.00;62281.09;5043261;28;20067;-71
2023/11/22 02:51:22;;;;;;;6.27;3.70;;;;;;;-141.23;100.00;62281.09;5043512;28;20082;-69
2023/11/22 02:53:49;;;;;;;8.07;4.17;;;;;;;-141.23;100.00;62281.09;5059787;28;20043;-70
2023/11/22 02:56:15;;;;;;;6.30;4.03;;;;;;;-141.23;100.00;62281.09;5076583;28;20047;-70
2023/11/22 02:58:42;;;;;;;5.33;3.57;;;;;;;-141.23;100.00;62281.09;5043082;28;20043;-71
2023/11/22 03:01:08;;;;;;;6.87;3.73;;;;;;;-141.23;100.00;62281.09;5076174;28;20055;-68
2023/11/22 03:03:35;;;;;;;5.87;3.83;;;;;;;-141.23;100.00;62281.09;5092923;28;20440;-72
2023/11/22 03:06:01;;;;;;;4.97;3.53;;;;;;;-141.23;100.00;62281.09;5059382;28;20383;-69
2023/11/22 03:08:27;;;;;;;9.83;3.43;;;;;;;-141.23;100.00;62281.09;5074319;28;20047;-72
2023/11/22 03:10:54;;;;;;;5.60;3.47;;;;;;;-141.23;100.00;62281.09;5097612;28;20039;-71
2023/11/22 03:13:20;;;;;;;6.43;3.53;;;;;;;-141.23;100.00;62281.09;5131444;27;20137;-71
2023/11/22 03:15:46;;;;;;;5.97;3.80;;;;;;;-141.23;100.00;62281.09;5114386;28;20126;-71
2023/11/22 03:18:12;;;;;;;6.63;3.73;;;;;;;-141.23;100.00;62281.09;5096671;28;20104;-71
2023/11/22 03:20:39;;;;;;;7.00;3.30;;;;;;;-141.23;100.00;62281.09;5096403;28;20054;-70
2023/11/22 03:23:05;;;;;;;6.87;3.83;;;;;;;-141.23;100.00;62281.09;5096411;28;20384;-70
2023/11/22 03:25:32;;;;;;;4.97;3.20;;;;;;;-141.23;100.00;62281.09;5096251;28;20053;-70
2023/11/22 03:27:58;;;;;;;6.43;3.57;;;;;;;-141.23;100.00;62281.09;5112927;28;20050;-70
2023/11/22 03:30:25;;;;;;;7.50;3.80;;;;;;;-141.23;100.00;62281.09;5079908;28;20540;-69
2023/11/22 03:32:51;;;;;;;3.80;3.20;;;;;;;-141.23;100.00;62281.09;5075710;28;20142;-71
2023/11/22 03:35:17;;;;;;;4.37;3.20;;;;;;;-141.23;100.00;62281.09;5075572;28;20044;-71
2023/11/22 03:37:44;;;;;;;4.80;3.10;;;;;;;-141.23;100.00;62281.09;5060820;28;20047;-71
2023/11/22 03:40:11;;;;;;;5.23;3.20;;;;;;;-141.23;100.00;62281.09;5055498;28;20055;-71
2023/11/22 03:42:39;;;;;;;7.43;3.43;;;;;;;-141.23;100.00;62281.09;5055400;28;20052;-71
2023/11/22 03:45:06;;;;;;;4.80;2.90;;;;;;;-141.23;100.00;62281.09;5023071;28;20372;-71
2023/11/22 03:47:33;;;;;;;7.07;3.20;;;;;;;-141.23;100.00;62281.09;5071821;28;20049;-71
2023/11/22 03:50:01;;;;;;;5.37;3.00;;;;;;;-141.23;100.00;62281.09;5074519;28;20064;-71
2023/11/22 03:52:29;;;;;;;5.63;3.25;;;;;;;-141.23;100.00;62281.09;5075645;28;20055;-71
2023/11/22 03:54:57;;;;;;;7.07;3.73;;;;;;;-141.23;100.00;62281.09;5076008;28;20044;-71
2023/11/22 03:57:25;;;;;;;5.63;3.40;;;;;;;-141.23;100.00;62281.09;5072114;28;20484;-70
2023/11/22 03:59:52;;;;;;;5.83;3.10;;;;;;;-141.23;100.00;62281.09;5022561;28;20044;-71
2023/11/22 04:02:18;;;;;;;6.07;3.50;;;;;;;-141.23;100.00;62281.09;5039038;28;20117;-70
2023/11/22 04:04:45;;;;;;;6.33;3.10;;;;;;;-141.23;100.00;62281.09;5022477;28;20044;-71
2023/11/22 04:07:11;;;;;;;8.43;3.43;;;;;;;-141.23;100.00;62281.09;5035415;28;20052;-71
2023/11/22 04:09:37;;;;;;;6.13;3.60;;;;;;;-141.23;100.00;62281.09;5015548;28;20097;-71
2023/11/22 04:12:05;;;;;;;4.53;3.13;;;;;;;-141.23;100.00;62281.09;4982233;28;20069;-72
2023/11/22 04:14:31;;;;;;;4.00;3.13;;;;;;;-141.23;100.00;62281.09;4980070;28;20504;-71
2023/11/22 04:16:57;;;;;;;5.13;3.10;;;;;;;-141.23;100.00;62281.09;4980180;28;20046;-72
2023/11/22 04:19:23;;;;;;;6.27;3.33;;;;;;;-141.23;100.00;62281.09;4980040;28;20054;-71
2023/11/22 04:21:49;;;;;;;5.40;3.47;;;;;;;-141.23;100.00;62281.09;4979860;28;20677;-71
2023/11/22 04:24:17;;;;;;;6.10;3.20;;;;;;;-141.23;100.00;62281.09;4976560;28;20069;-71
2023/11/22 04:26:44;;;;;;;7.87;3.10;;;;;;;-141.23;100.00;62281.09;4976405;28;20058;-71
2023/11/22 04:29:12;;;;;;;6.43;3.20;;;;;;;-141.23;100.00;62281.09;4996022;28;20144;-71
2023/11/22 04:31:38;;;;;;;7.27;3.47;;;;;;;-141.23;100.00;62281.09;4999464;28;20060;-71
2023/11/22 04:34:04;;;;;;;5.17;3.53;;;;;;;-141.23;100.00;62281.09;5031991;28;20053;-71
2023/11/22 04:36:33;;;;;;;7.07;3.40;;;;;;;-141.23;100.00;62281.09;4982739;28;20080;-73
2023/11/22 04:39:00;;;;;;;7.20;3.43;;;;;;;-141.23;100.00;62281.09;5012691;28;20049;-71
2023/11/22 04:41:26;;;;;;;4.23;3.00;;;;;;;-141.23;100.00;62281.09;5032357;28;20095;-72
2023/11/22 04:43:53;;;;;;;10.77;3.40;;;;;;;-141.23;100.00;62281.09;5031652;28;20076;-73
2023/11/22 04:46:19;;;;;;;6.00;3.57;;;;;;;-141.23;100.00;62281.09;5031464;28;20119;-71
2023/11/22 04:48:50;;;;;;;5.07;2.90;;;;;;;-141.23;100.00;62281.09;5031766;28;20552;-71
2023/11/22 04:51:17;;;;;;;5.22;3.00;;;;;;;-141.23;100.00;62281.09;5015286;28;20054;-70
2023/11/22 04:53:44;;;;;;;5.10;2.80;;;;;;;-141.23;100.00;62281.09;5015209;28;20041;-71
2023/11/22 04:56:16;;;;;;;4.87;3.10;;;;;;;-141.23;100.00;62281.09;4998959;28;20061;-71
2023/11/22 04:58:43;;;;;;;5.40;3.30;;;;;;;-141.23;100.00;62281.09;5031465;28;20061;-71
2023/11/22 05:01:11;;;;;;;5.00;3.20;;;;;;;-141.23;100.00;62281.09;5031490;28;20059;-71
2023/11/22 05:03:38;;;;;;;5.07;3.10;;;;;;;-141.23;100.00;62281.09;4998696;28;20144;-71
2023/11/22 05:06:07;;;;;;;9.23;3.23;;;;;;;-141.23;100.00;62281.09;5031138;28;20054;-71
2023/11/22 05:08:38;;;;;;;6.38;3.13;;;;;;;-141.23;100.00;62281.09;4998913;28;20045;-71
2023/11/22 05:11:05;;;;;;;4.50;2.90;;;;;;;-141.23;100.00;62281.09;4998540;28;20103;-71
2023/11/22 05:13:31;;;;;;;6.30;3.23;;;;;;;-141.23;100.00;62281.09;5014890;28;20050;-71
2023/11/22 05:15:58;;;;;;;4.53;2.90;;;;;;;-141.23;100.00;62281.09;5027367;28;20081;-71
2023/11/22 05:18:25;;;;;;;8.13;3.60;;;;;;;-141.23;100.00;62281.09;5067849;27;20047;-71
2023/11/22 05:20:51;;;;;;;6.77;3.20;;;;;;;-141.23;100.00;62281.09;5064429;27;20047;-71
2023/11/22 05:23:19;;;;;;;7.67;3.40;;;;;;;-141.23;100.00;62281.09;5064536;27;20111;-71
2023/11/22 05:25:46;;;;;;;10.10;3.63;;;;;;;-141.23;100.00;62281.09;5098097;27;20043;-71
2023/11/22 05:28:13;;;;;;;4.30;3.10;;;;;;;-141.23;100.00;62281.09;5040979;28;20059;-70
2023/11/22 05:30:41;;;;;;;6.40;3.70;;;;;;;-141.23;100.00;62281.09;5054648;28;20056;-71
2023/11/22 05:33:11;;;;;;;5.27;3.37;;;;;;;-141.23;100.00;62281.09;5038312;28;20051;-72
2023/11/22 05:35:40;;;;;;;5.63;3.33;;;;;;;-141.23;100.00;62281.09;4978468;28;20092;-72
2023/11/22 05:38:11;;;;;;;6.97;4.07;;;;;;;-141.23;100.00;62281.09;5010547;28;20054;-71
2023/11/22 05:40:39;;;;;;;9.03;3.23;;;;;;;-141.23;100.00;62281.09;5013861;28;20061;-71
2023/11/22 05:43:05;;;;;;;5.33;3.50;;;;;;;-141.23;100.00;62281.09;4981809;28;20074;-72
2023/11/22 05:45:31;;;;;;;7.50;3.80;;;;;;;-141.23;100.00;62281.09;5010657;28;20065;-71
2023/11/22 05:47:57;;;;;;;4.23;3.00;;;;;;;-141.23;100.00;62281.09;5010502;28;20050;-72
2023/11/22 05:50:25;;;;;;;5.20;3.13;;;;;;;-141.23;100.00;62281.09;4978575;28;20116;-72
2023/11/22 05:52:55;;;;;;;7.83;3.30;;;;;;;-141.23;100.00;62281.09;4978131;28;20506;-72
2023/11/22 05:55:22;;;;;;;5.70;2.93;;;;;;;-141.23;100.00;62281.09;5010423;28;20050;-71
2023/11/22 05:57:48;;;;;;;6.73;3.60;;;;;;;-141.23;100.00;62281.09;5010385;28;20041;-71
2023/11/22 06:00:15;;;;;;;10.40;3.47;;;;;;;-141.23;100.00;62281.09;5028897;28;20084;-71
2023/11/22 06:02:42;;;;;;;8.67;3.10;;;;;;;-141.23;100.00;62281.09;4996647;28;20049;-71
2023/11/22 06:05:09;;;;;;;4.77;3.10;;;;;;;-141.23;100.00;62281.09;4992828;28;20212;-71
2023/11/22 06:07:35;;;;;;;6.37;3.00;;;;;;;-141.23;100.00;62281.09;5010282;28;20049;-73
2023/11/22 06:10:02;;;;;;;5.20;2.90;;;;;;;-141.23;100.00;62281.09;5010755;28;20493;-72
2023/11/22 06:12:30;;;;;;;4.33;2.80;;;;;;;-141.23;100.00;62281.09;5021417;28;20163;-71
2023/11/22 06:14:56;;;;;;;3.37;2.60;;;;;;;-141.23;100.00;62281.09;5034606;28;20127;-71
2023/11/22 06:17:22;;;;;;;5.20;2.90;;;;;;;-141.23;100.00;62281.09;5102225;28;20056;-72
2023/11/22 06:19:48;;;;;;;6.73;2.97;;;;;;;-141.23;100.00;62281.09;5063567;27;20038;-70
2023/11/22 06:22:16;;;;;;;7.70;2.63;;;;;;;-141.23;100.00;62281.09;5097772;27;20050;-71
2023/11/22 06:24:43;;;;;;;3.27;2.50;;;;;;;-141.23;100.00;62281.09;5056092;28;20067;-71
2023/11/22 06:27:09;;;;;;;4.87;2.60;;;;;;;-141.23;100.00;62281.09;5055859;28;20467;-70
2023/11/22 06:29:35;;;;;;;4.50;2.80;;;;;;;-141.23;100.00;62281.09;5056505;28;20140;-70
2023/11/22 06:32:01;;;;;;;4.23;2.40;;;;;;;-141.23;100.00;62281.09;5056549;28;20036;-72
2023/11/22 06:34:28;;;;;;;6.07;3.00;;;;;;;-141.23;100.00;62281.09;5056164;28;20492;-72
2023/11/22 06:36:54;;;;;;;5.30;2.97;;;;;;;-141.23;100.00;62281.09;5056410;28;20380;-71
2023/11/22 06:39:22;;;;;;;4.00;2.30;;;;;;;-141.23;100.00;62281.09;5035998;28;20050;-69
2023/11/22 06:41:48;;;;;;;10.00;2.87;;;;;;;-141.23;100.00;62281.09;5020126;28;20150;-71
2023/11/22 06:44:14;;;;;;;4.17;2.83;;;;;;;-141.23;100.00;62281.09;5020116;28;20052;-70
2023/11/22 06:46:41;;;;;;;3.47;2.80;;;;;;;-141.23;100.00;62281.09;5020097;28;20066;-70
2023/11/22 06:49:07;;;;;;;6.60;2.93;;;;;;;-141.23;100.00;62281.09;5019854;28;20543;-71
2023/11/22 06:51:34;;;;;;;3.53;2.50;;;;;;;-141.23;100.00;62281.09;5020460;28;20055;-70
2023/11/22 06:54:01;;;;;;;3.73;2.90;;;;;;;-141.23;100.00;62281.09;5036750;28;20484;-71
2023/11/22 06:56:27;;;;;;;3.70;2.57;;;;;;;-141.23;100.00;62281.09;5036835;28;20059;-70
2023/11/22 06:58:54;;;;;;;3.70;2.50;;;;;;;-141.23;100.00;62281.09;5059770;28;20112;-70
2023/11/22 07:01:27;;;;;;;5.53;2.93;;;;;;;-141.23;100.00;62281.09;5042686;28;20467;-72
2023/11/22 07:03:53;;;;;;;6.47;3.20;;;;;;;-141.23;100.00;62281.09;5043691;28;20035;-72
2023/11/22 07:06:18;;;;;;;4.63;3.03;;;;;;;-141.23;100.00;62281.09;5043173;28;20054;-70
2023/11/22 07:08:45;;;;;;;4.03;2.80;;;;;;;-141.23;100.00;62281.09;5043600;28;20044;-71
2023/11/22 07:11:11;;;;;;;3.77;2.93;;;;;;;-141.23;100.00;62281.09;5113381;27;20082;-70
2023/11/22 07:13:39;;;;;;;4.50;2.67;;;;;;;-141.23;100.00;62281.09;5083353;27;20075;-72
2023/11/22 07:16:07;;;;;;;4.57;2.77;;;;;;;-141.23;100.00;62281.09;5067287;27;20104;-71
2023/11/22 07:18:37;;;;;;;3.40;2.83;;;;;;;-141.23;100.00;62281.09;5089456;28;20056;-71
2023/11/22 07:21:05;;;;;;;5.07;2.60;;;;;;;-141.23;100.00;62281.09;5080255;28;20081;-71
2023/11/22 07:23:31;;;;;;;3.93;2.67;;;;;;;-141.23;100.00;62281.09;5080263;28;20100;-73
2023/11/22 07:25:58;;;;;;;3.03;2.43;;;;;;;-141.23;100.00;62281.09;5096757;28;20047;-71
2023/11/22 07:28:24;;;;;;;3.63;2.60;;;;;;;-141.23;100.00;62281.09;5080309;28;20047;-70
2023/11/22 07:30:51;;;;;;;3.90;2.40;;;;;;;-141.23;100.00;62281.09;5063199;28;20036;-70
2023/11/22 07:33:20;;;;;;;3.10;2.67;;;;;;;-141.23;100.00;62281.09;5079457;28;20043;-72
2023/11/22 07:35:46;;;;;;;3.53;2.60;;;;;;;-141.23;100.00;62281.09;5075379;27;20062;-71
2023/11/22 07:38:12;;;;;;;3.17;2.50;;;;;;;-141.23;100.00;62281.09;5065549;27;20188;-70
2023/11/22 07:40:39;;;;;;;3.00;2.20;;;;;;;-141.23;100.00;62281.09;5082414;27;20125;-69
2023/11/22 07:43:07;;;;;;;4.87;2.37;;;;;;;-141.23;100.00;62281.09;5082732;27;20162;-70
2023/11/22 07:45:34;;;;;;;3.07;2.33;;;;;;;-141.23;100.00;62281.09;5108645;27;20038;-69
2023/11/22 07:48:00;;;;;;;2.90;2.27;;;;;;;-141.23;100.00;62281.09;5104705;27;20526;-70
2023/11/22 07:50:26;;;;;;;4.27;2.30;;;;;;;-141.23;100.00;62281.09;5103136;27;20123;-68
2023/11/22 07:52:52;;;;;;;4.77;2.30;;;;;;;-141.23;100.00;62281.09;5103783;27;20031;-69
2023/11/22 07:55:18;;;;;;;3.53;2.30;;;;;;;-141.23;100.00;62281.09;5103279;27;20034;-69
2023/11/22 07:57:45;;;;;;;4.67;2.67;;;;;;;-141.23;100.00;62281.09;5102227;27;20039;-69
2023/11/22 08:00:12;;;;;;;8.33;2.60;;;;;;;-141.23;100.00;62281.09;5120378;27;20505;-68
2023/11/22 08:02:42;;;;;;;5.77;2.30;;;;;;;-141.23;100.00;62281.09;5120538;27;20046;-68
2023/11/22 08:05:09;;;;;;;;;;;;;;;-141.23;100.00;62281.09;5124594;27;20046;-69
2023/11/22 08:07:38;;;;;;;3.15;1.95;;;;;;;-141.23;100.00;62281.09;5083929;27;19919;-72
2023/11/22 08:10:17;;;;;;;9.70;2.00;;;;;;;-141.23;100.00;62281.09;5108848;27;20042;-75
2023/11/22 08:12:47;;;;;;;5.53;1.83;;;;;;;-141.23;100.00;62281.09;5148860;27;20445;-74
2023/11/22 08:15:15;;;;;;;;;;;;;;;-141.23;100.00;62281.09;5134987;27;20034;-74
2023/11/22 08:17:45;;;;;;;3.50;1.83;;;;;;;-141.23;100.00;62281.09;5132538;27;19915;-73
2023/11/22 08:20:13;;;;;;;2.85;1.80;;;;;;;-141.23;100.00;62281.09;5121818;27;20042;-74
2023/11/22 08:22:39;;;;;;;2.67;1.60;;;;;;;-141.23;100.00;62281.09;5112441;27;20118;-73
2023/11/22 08:25:08;;;;;;;2.60;1.50;;;;;;;-141.23;100.00;62281.09;5103423;27;20042;-75
2023/11/22 08:27:34;;;;;;;2.50;1.55;;;;;;;-141.23;100.00;62281.09;5103174;27;20137;-72
2023/11/22 08:30:04;;;;;;;2.22;1.25;;;;;;;-141.23;100.00;62281.09;5119798;27;20091;-73
2023/11/22 08:32:32;;;;;;;3.33;1.45;;;;;;;-141.23;100.00;62281.09;5115020;27;20031;-74
2023/11/22 08:35:01;;;;;;;2.20;1.75;;;;;;;-141.23;100.00;62281.09;5119399;27;20041;-72
2023/11/22 08:37:28;;;;;;;3.78;1.75;;;;;;;-141.23;100.00;62281.09;5119264;27;20042;-74
2023/11/22 08:39:54;;;;;;;2.03;1.70;;;;;;;-141.23;100.00;62281.09;5099758;27;20130;-72
2023/11/22 08:42:20;;;;;;;2.15;1.80;;;;;;;-141.23;100.00;62281.09;5118401;27;20398;-73
2023/11/22 08:44:46;;;;;;;4.00;1.83;;;;;;;-141.23;100.00;62281.09;5077656;28;20116;-73
2023/11/22 08:47:13;;;;;;;3.95;2.30;;;;;;;-141.23;100.00;62281.09;5060086;28;20043;-73
2023/11/22 08:49:39;;;;;;;4.18;2.70;;;;;;;-141.23;100.00;62281.09;5072749;28;20159;-75
2023/11/22 08:52:07;;;;;;;2.83;1.90;;;;;;;-141.23;100.00;62281.09;5048634;28;20540;-74
2023/11/22 08:54:32;;;;;;;4.43;2.23;;;;;;;-141.23;100.00;62281.09;5016423;28;20396;-73
2023/11/22 08:57:00;;;;;;;17.73;3.57;;;;;;;-141.23;100.00;62281.09;5049102;28;20102;-74
2023/11/22 08:59:26;;;;;;;4.43;2.70;;;;;;;-141.23;100.00;62281.09;5033595;28;20052;-74
2023/11/22 09:01:52;;;;;;;10.53;3.30;;;;;;;-141.23;100.00;62281.09;5042288;28;20063;-73
2023/11/22 09:04:19;;;;;;;4.47;2.97;;;;;;;-141.23;100.00;62281.09;5023898;28;20690;-73
2023/11/22 09:06:47;;;;;;;4.25;1.95;;;;;;;-141.23;100.00;62281.09;4985167;28;20049;-73
2023/11/22 09:09:15;;;;;;;2.97;1.70;;;;;;;-141.23;100.00;62281.09;4971552;28;20042;-74
2023/11/22 09:11:45;;;;;;;1.90;1.50;;;;;;;-141.23;100.00;62281.09;4941151;28;20062;-74
2023/11/22 09:14:13;;;;;;;3.60;1.70;;;;;;;-141.23;100.00;62281.09;4940683;28;20061;-75
2023/11/22 09:16:38;;;;;;;1.85;1.70;;;;;;;-141.23;100.00;62281.09;4947584;28;20056;-74
2023/11/22 09:19:07;;;;;;;3.67;1.95;;;;;;;-141.23;100.00;62281.09;4984491;28;20042;-74
2023/11/22 09:21:33;;;;;;;3.63;1.83;;;;;;;-141.23;100.00;62281.09;4951091;28;20178;-73
2023/11/22 09:23:59;;;;;;;4.05;1.40;;;;;;;-141.23;100.00;62281.09;4955039;28;20051;-75
2023/11/22 09:26:26;;;;;;;4.45;1.50;;;;;;;-141.23;100.00;62281.09;4940978;28;20166;-73
2023/11/22 09:28:53;;;;;;;2.25;1.45;;;;;;;-141.23;100.00;62281.09;4948151;28;20057;-74
2023/11/22 09:31:20;;;;;;;1.92;1.70;;;;;;;-141.23;100.00;62281.09;5011541;28;20037;-76
2023/11/22 09:33:47;;;;;;;4.57;2.03;;;;;;;-141.23;100.00;62281.09;5039709;28;20159;-74
2023/11/22 09:36:15;;;;;;;3.75;1.38;;;;;;;-141.23;100.00;62281.09;4997988;28;20531;-74
2023/11/22 09:38:41;;;;;;;2.50;1.55;;;;;;;-141.23;100.00;62281.09;5052335;28;20550;-73
2023/11/22 09:41:08;;;;;;;1.85;1.20;;;;;;;-141.23;100.00;62281.09;5071806;27;20058;-77
2023/11/22 09:43:36;;;;;;;2.55;1.67;;;;;;;-141.23;100.00;62281.09;5079749;27;20367;-75
2023/11/22 09:46:03;;;;;;;3.47;1.60;;;;;;;-141.23;100.00;62281.09;5079687;27;20046;-75
2023/11/22 09:48:31;;;;;;;4.22;2.30;;;;;;;-141.23;100.00;62281.09;5116198;27;20050;-78
2023/11/22 09:51:20;;;;;;;3.88;1.88;;;;;;;-141.23;100.00;62281.09;5082894;27;20493;-76
2023/11/22 09:53:59;;;;;;;4.43;1.65;;;;;;;-141.23;100.00;62281.09;5115385;27;20050;-75
2023/11/22 09:56:27;;;;;;;2.78;1.80;;;;;;;-141.23;100.00;62281.09;5037751;28;20052;-74
2023/11/22 09:58:56;;;;;;;2.55;2.00;;;;;;;-141.23;100.00;62281.09;5037533;28;20106;-75
2023/11/22 10:01:27;;;;;;;5.32;2.10;;;;;;;-141.23;100.00;62281.09;5054167;28;20051;-71
2023/11/22 10:03:57;;;;;;;2.92;2.50;;;;;;;-141.23;100.00;62281.09;5056882;28;20044;-73
2023/11/22 10:06:23;;;;;;;7.03;3.33;;;;;;;-141.23;100.00;62281.09;5040142;28;20056;-72
2023/11/22 10:08:49;;;;;;;8.13;4.10;;;;;;;-141.23;100.00;62281.09;5056834;28;20036;-74
2023/11/22 10:11:21;;;;;;;9.75;4.15;;;;;;;-141.23;100.00;62281.09;5056456;28;20147;-71
2023/11/22 10:13:49;;;;;;;9.70;4.32;;;;;;;-141.23;100.00;62281.09;5040111;28;20916;-71
2023/11/22 10:16:18;;;;;;;12.47;3.80;;;;;;;-141.23;100.00;62281.09;5056182;28;20376;-71
2023/11/22 10:18:46;;;;;;;15.80;3.50;;;;;;;-141.23;100.00;62281.09;5035938;28;20060;-71
2023/11/22 10:21:39;;;;;;;12.43;3.70;;;;;;;-141.23;100.00;62281.09;5036301;28;20063;-71
2023/11/22 10:24:09;;;;;;;6.40;3.43;;;;;;;-141.23;100.00;62281.09;5019372;28;20052;-71
2023/11/22 10:26:41;;;;;;;6.57;3.20;;;;;;;-141.23;100.00;62281.09;5049032;28;20079;-71
2023/11/22 10:29:08;;;;;;;8.07;2.87;;;;;;;-141.23;100.00;62281.09;5059475;28;20047;-72
2023/11/22 10:31:34;;;;;;;6.00;2.70;;;;;;;-141.23;100.00;62281.09;5059999;28;20467;-71
2023/11/22 10:34:05;;;;;;;7.13;2.77;;;;;;;-141.23;100.00;62281.09;5055786;28;20051;-72
2023/11/22 10:36:32;;;;;;;;;;;;;;;-141.23;100.00;62281.09;5039843;28;20082;-71
2023/11/22 10:39:03;;;;;;;5.27;2.60;;;;;;;-141.23;100.00;62281.09;5015753;28;19927;-70
2023/11/22 10:41:32;;;;;;;5.53;2.37;;;;;;;-141.23;100.00;62281.09;5016909;28;20090;-70
2023/11/22 10:44:02;;;;;;;4.57;2.40;;;;;;;-141.23;100.00;62281.09;5015713;28;20481;-71
2023/11/22 10:46:30;;;;;;;4.10;2.33;;;;;;;-141.23;100.00;62281.09;4999935;28;20039;-71
2023/11/22 10:48:57;;;;;;;2.93;2.00;;;;;;;-141.23;100.00;62281.09;5001354;28;20048;-70
2023/11/22 10:51:33;;;;;;;7.03;2.30;;;;;;;-141.23;100.00;62281.09;5050388;28;20041;-70
2023/11/22 10:54:07;;;;;;;5.40;2.30;;;;;;;-141.23;100.00;62281.09;5049774;28;20037;-70
2023/11/22 10:56:57;;;;;;;4.03;2.60;;;;;;;-141.23;100.00;62281.09;5010326;28;20061;-70
2023/11/22 10:59:27;;;;;;;3.47;2.33;;;;;;;-141.23;100.00;62281.09;5034262;28;20381;-70
2023/11/22 11:01:56;;;;;;;6.33;2.30;;;;;;;-141.23;100.00;62281.09;5026966;28;20044;-70
2023/11/22 11:04:37;;;;;;;4.83;2.30;;;;;;;-141.23;100.00;62281.09;5014281;28;20315;-70
2023/11/22 11:07:03;;;;;;;3.30;2.00;;;;;;;-141.23;100.00;62281.09;5011000;28;20460;-70
2023/11/22 11:09:32;;;;;;;4.33;2.40;;;;;;;-141.23;100.00;62281.09;5049674;28;20050;-71
2023/11/22 11:12:03;;;;;;;8.13;2.33;;;;;;;-141.23;100.00;62281.09;5056200;28;20079;-71